createdAt,value
2017-10-30T00:00:52.308Z,3.30
2017-10-30T00:03:21.365Z,3.27
2017-10-30T00:05:50.413Z,3.10
2017-10-30T00:08:19.472Z,3.30
2017-10-30T00:10:49.072Z,3.50
2017-10-30T00:13:19.004Z,3.60
2017-10-30T00:15:48.677Z,3.47
2017-10-30T00:18:21.801Z,3.33
2017-10-30T00:20:55.768Z,3.50
2017-10-30T00:23:24.912Z,3.20
2017-10-30T00:26:00.010Z,3.00
2017-10-30T00:28:43.425Z,3.80
2017-10-30T00:31:12.474Z,3.17
2017-10-30T00:33:41.596Z,3.30
2017-10-30T00:36:17.384Z,3.37
2017-10-30T00:38:59.721Z,3.07
2017-10-30T00:41:34.844Z,3.13
2017-10-30T00:44:03.884Z,3.10
2017-10-30T00:46:36.466Z,3.13
2017-10-30T00:49:05.645Z,3.10
2017-10-30T00:51:47.779Z,3.50
2017-10-30T00:54:16.875Z,3.13
2017-10-30T00:56:47.543Z,2.80
2017-10-30T00:59:25.071Z,3.90
2017-10-30T01:01:54.357Z,3.20
2017-10-30T01:04:23.399Z,3.30
2017-10-30T01:06:52.368Z,3.83
2017-10-30T01:09:21.348Z,3.53
2017-10-30T01:11:50.411Z,3.20
2017-10-30T01:14:19.677Z,3.13
2017-10-30T01:16:50.159Z,3.13
2017-10-30T01:19:19.241Z,2.90
2017-10-30T01:21:48.333Z,3.23
2017-10-30T01:24:17.373Z,2.93
2017-10-30T01:26:47.138Z,3.50
2017-10-30T01:29:16.190Z,3.77
2017-10-30T01:31:45.245Z,3.47
2017-10-30T01:34:14.383Z,2.90
2017-10-30T01:36:43.530Z,3.50
2017-10-30T01:39:12.574Z,3.23
2017-10-30T01:41:41.592Z,2.80
2017-10-30T01:44:10.651Z,3.23
2017-10-30T01:46:52.616Z,3.20
2017-10-30T01:49:21.631Z,3.10
2017-10-30T01:51:50.660Z,2.90
2017-10-30T01:54:19.701Z,2.80
2017-10-30T01:57:03.998Z,3.30
2017-10-30T01:59:33.072Z,2.93
2017-10-30T02:02:02.108Z,2.70
2017-10-30T02:04:31.195Z,3.37
2017-10-30T02:07:00.216Z,3.00
2017-10-30T02:09:36.609Z,3.43
2017-10-30T02:12:11.854Z,2.80
2017-10-30T02:14:41.003Z,2.77
2017-10-30T02:17:10.081Z,2.90
2017-10-30T02:19:39.153Z,2.70
2017-10-30T02:22:08.260Z,2.80
2017-10-30T02:24:37.319Z,2.90
2017-10-30T02:27:06.424Z,3.40
2017-10-30T02:29:35.850Z,2.80
2017-10-30T02:32:15.069Z,2.90
2017-10-30T02:34:44.185Z,3.10
2017-10-30T02:37:13.560Z,2.97
2017-10-30T02:39:42.643Z,2.80
2017-10-30T02:42:11.791Z,3.60
2017-10-30T02:44:41.297Z,2.90
2017-10-30T02:47:10.360Z,2.97
2017-10-30T02:49:39.437Z,2.53
2017-10-30T02:52:08.591Z,2.40
2017-10-30T02:54:37.708Z,3.20
2017-10-30T02:57:06.784Z,2.70
2017-10-30T02:59:35.952Z,2.90
2017-10-30T03:02:05.291Z,2.40
2017-10-30T03:04:34.477Z,2.97
2017-10-30T03:07:03.520Z,2.63
2017-10-30T03:09:32.595Z,2.80
2017-10-30T03:12:07.807Z,2.80
2017-10-30T03:14:36.982Z,2.70
2017-10-30T03:17:06.102Z,3.40
2017-10-30T03:19:35.225Z,2.30
2017-10-30T03:22:19.284Z,3.30
2017-10-30T03:24:48.730Z,3.20
2017-10-30T03:27:17.797Z,2.70
2017-10-30T03:29:46.835Z,2.87
2017-10-30T03:32:22.032Z,2.90
2017-10-30T03:35:03.176Z,2.53
2017-10-30T03:37:39.252Z,2.57
2017-10-30T03:40:09.019Z,2.67
2017-10-30T03:42:38.138Z,2.10
2017-10-30T03:45:07.165Z,2.73
2017-10-30T03:47:36.164Z,2.50
2017-10-30T03:50:19.274Z,3.00
2017-10-30T03:52:48.385Z,2.53
2017-10-30T03:55:17.496Z,3.00
2017-10-30T03:57:46.535Z,3.20
2017-10-30T04:00:15.601Z,2.80
2017-10-30T04:02:54.652Z,2.47
2017-10-30T04:05:23.713Z,3.00
2017-10-30T04:07:52.745Z,2.47
2017-10-30T04:10:22.092Z,2.67
2017-10-30T04:12:51.277Z,2.50
2017-10-30T04:15:20.320Z,2.40
2017-10-30T04:17:49.299Z,2.63
2017-10-30T04:20:18.460Z,3.53
2017-10-30T04:22:47.579Z,2.43
2017-10-30T04:25:16.610Z,2.90
2017-10-30T04:27:45.635Z,2.67
2017-10-30T04:30:21.624Z,2.80
2017-10-30T04:32:50.776Z,3.30
2017-10-30T04:35:19.892Z,2.57
2017-10-30T04:37:48.928Z,2.57
2017-10-30T04:40:30.660Z,2.60
2017-10-30T04:42:59.676Z,2.60
2017-10-30T04:45:28.738Z,2.87
2017-10-30T04:47:57.787Z,2.60
2017-10-30T04:50:26.880Z,2.37
2017-10-30T04:52:55.912Z,2.80
2017-10-30T04:55:25.151Z,4.50
2017-10-30T04:57:54.187Z,2.80
2017-10-30T05:00:23.209Z,2.47
2017-10-30T05:02:52.207Z,2.40
2017-10-30T05:05:21.207Z,2.00
2017-10-30T05:07:50.612Z,2.67
2017-10-30T05:10:19.698Z,2.80
2017-10-30T05:12:49.299Z,2.90
2017-10-30T05:15:18.328Z,3.27
2017-10-30T05:17:47.405Z,2.43
2017-10-30T05:20:16.430Z,3.20
2017-10-30T05:22:45.512Z,2.90
2017-10-30T05:25:23.056Z,3.80
2017-10-30T05:27:52.944Z,4.70
2017-10-30T05:30:21.943Z,3.77
2017-10-30T05:32:51.070Z,2.67
2017-10-30T05:35:20.353Z,2.47
2017-10-30T05:37:53.019Z,2.10
2017-10-30T05:40:22.538Z,2.50
2017-10-30T05:42:51.752Z,2.37
2017-10-30T05:45:22.632Z,2.70
2017-10-30T05:47:58.436Z,3.57
2017-10-30T05:50:27.449Z,2.40
2017-10-30T05:52:56.472Z,2.30
2017-10-30T05:55:25.653Z,2.70
2017-10-30T05:57:54.854Z,2.20
2017-10-30T06:00:23.888Z,2.13
2017-10-30T06:02:53.305Z,2.20
2017-10-30T06:05:22.454Z,1.77
2017-10-30T06:07:58.043Z,2.10
2017-10-30T06:10:27.084Z,2.00
2017-10-30T06:12:56.116Z,2.13
2017-10-30T06:15:31.865Z,1.90
2017-10-30T06:18:00.884Z,2.20
2017-10-30T06:20:29.905Z,2.30
2017-10-30T06:22:58.956Z,2.27
2017-10-30T06:25:28.272Z,2.00
2017-10-30T06:27:58.327Z,2.30
2017-10-30T06:30:27.548Z,1.80
2017-10-30T06:32:56.580Z,2.07
2017-10-30T06:35:26.085Z,2.80
2017-10-30T06:38:02.857Z,2.07
2017-10-30T06:40:32.716Z,1.73
2017-10-30T06:43:02.128Z,2.00
2017-10-30T06:45:32.508Z,2.10
2017-10-30T06:48:01.552Z,9.70
2017-10-30T06:50:30.602Z,8.87
2017-10-30T06:52:59.633Z,8.70
2017-10-30T06:55:28.652Z,9.83
2017-10-30T06:57:58.125Z,6.60
2017-10-30T07:00:27.232Z,7.13
2017-10-30T07:02:57.254Z,6.67
2017-10-30T07:05:26.344Z,6.30
2017-10-30T07:07:55.684Z,4.20
2017-10-30T07:10:25.428Z,3.93
2017-10-30T07:13:06.721Z,4.57
2017-10-30T07:15:48.062Z,5.50
2017-10-30T07:18:17.149Z,9.53
2017-10-30T07:20:46.278Z,12.50
2017-10-30T07:23:15.339Z,13.10
2017-10-30T07:25:44.490Z,8.80
2017-10-30T07:28:13.727Z,8.17
2017-10-30T07:30:48.916Z,16.10
2017-10-30T07:33:18.184Z,7.57
2017-10-30T07:35:53.885Z,13.67
2017-10-30T07:38:23.189Z,16.60
2017-10-30T07:40:55.491Z,14.50
2017-10-30T07:43:25.134Z,9.73
2017-10-30T07:45:54.261Z,11.33
2017-10-30T07:48:23.332Z,7.40
2017-10-30T07:50:52.728Z,8.60
2017-10-30T07:53:23.387Z,8.20
2017-10-30T07:56:05.355Z,9.40
2017-10-30T07:58:34.443Z,7.70
2017-10-30T08:01:06.809Z,6.13
2017-10-30T08:03:36.016Z,6.47
2017-10-30T08:06:05.254Z,5.50
2017-10-30T08:08:34.393Z,6.47
2017-10-30T08:11:03.512Z,3.53
2017-10-30T08:13:32.962Z,2.80
2017-10-30T08:16:03.278Z,2.43
2017-10-30T08:18:32.672Z,2.63
2017-10-30T08:23:35.200Z,2.80
2017-10-30T08:26:04.385Z,2.70
2017-10-30T08:28:33.547Z,2.90
2017-10-30T08:31:02.661Z,2.80
2017-10-30T08:33:31.786Z,2.50
2017-10-30T08:36:02.658Z,2.77
2017-10-30T08:38:31.777Z,2.57
2017-10-30T08:41:00.976Z,2.20
2017-10-30T08:43:30.172Z,2.43
2017-10-30T08:45:59.447Z,2.50
2017-10-30T08:48:28.980Z,3.10
2017-10-30T08:50:58.181Z,2.53
2017-10-30T08:53:27.213Z,2.30
2017-10-30T08:55:56.300Z,2.50
2017-10-30T08:58:25.534Z,2.03
2017-10-30T09:01:08.141Z,2.00
2017-10-30T09:03:37.518Z,2.63
2017-10-30T09:06:06.916Z,2.50
2017-10-30T09:08:35.957Z,2.80
2017-10-30T09:11:05.949Z,2.97
2017-10-30T09:13:35.270Z,2.73
2017-10-30T09:16:04.501Z,2.70
2017-10-30T09:18:33.621Z,2.97
2017-10-30T09:21:02.708Z,2.57
2017-10-30T09:23:31.787Z,2.57
2017-10-30T09:26:07.012Z,2.67
2017-10-30T09:28:36.120Z,2.60
2017-10-30T09:31:12.507Z,3.30
2017-10-30T09:33:41.968Z,2.80
2017-10-30T09:36:11.886Z,3.30
2017-10-30T09:38:41.104Z,2.90
2017-10-30T09:41:10.307Z,2.40
2017-10-30T09:43:40.245Z,3.10
2017-10-30T09:46:09.315Z,3.00
2017-10-30T09:48:38.583Z,2.80
2017-10-30T09:51:07.647Z,2.40
2017-10-30T09:53:36.720Z,2.70
2017-10-30T09:56:05.828Z,3.27
2017-10-30T09:58:35.255Z,2.43
2017-10-30T10:01:06.934Z,2.70
2017-10-30T10:03:36.872Z,3.00
2017-10-30T10:06:05.984Z,3.20
2017-10-30T10:08:35.292Z,2.70
2017-10-30T10:11:04.308Z,2.90
2017-10-30T10:13:33.442Z,3.00
2017-10-30T10:16:02.512Z,2.73
2017-10-30T10:18:31.573Z,2.80
2017-10-30T10:21:01.135Z,2.80
2017-10-30T10:23:30.772Z,2.80
2017-10-30T10:25:59.895Z,3.20
2017-10-30T10:28:29.641Z,3.20
2017-10-30T10:30:58.776Z,3.33
2017-10-30T10:33:27.871Z,3.30
2017-10-30T10:35:57.022Z,2.90
2017-10-30T10:38:26.098Z,2.60
2017-10-30T10:40:55.269Z,2.60
2017-10-30T10:43:24.440Z,3.50
2017-10-30T10:45:53.800Z,3.27
2017-10-30T10:48:24.644Z,3.30
2017-10-30T10:50:53.660Z,2.97
2017-10-30T10:53:22.988Z,3.50
2017-10-30T10:55:52.089Z,3.10
2017-10-30T10:58:24.959Z,3.77
2017-10-30T11:00:54.055Z,3.40
2017-10-30T11:03:23.060Z,2.73
2017-10-30T11:05:52.155Z,2.63
2017-10-30T11:08:21.313Z,3.30
2017-10-30T11:10:50.362Z,2.90
2017-10-30T11:13:21.408Z,3.80
2017-10-30T11:15:50.527Z,3.73
2017-10-30T11:18:19.577Z,3.10
2017-10-30T11:20:48.671Z,2.57
2017-10-30T11:23:17.730Z,2.90
2017-10-30T11:25:48.613Z,2.93
2017-10-30T11:28:17.775Z,3.20
2017-10-30T11:30:46.833Z,3.20
2017-10-30T11:33:16.033Z,2.50
2017-10-30T11:35:45.315Z,3.37
2017-10-30T11:38:14.741Z,3.40
2017-10-30T11:40:44.303Z,3.40
2017-10-30T11:43:13.370Z,2.87
2017-10-30T11:45:42.394Z,3.57
2017-10-30T11:48:11.441Z,3.10
2017-10-30T11:50:41.240Z,2.93
2017-10-30T11:53:10.249Z,3.00
2017-10-30T11:55:40.492Z,3.00
2017-10-30T11:58:10.521Z,3.30
2017-10-30T12:00:39.561Z,2.77
2017-10-30T12:03:08.637Z,3.07
2017-10-30T12:05:37.955Z,2.80
2017-10-30T12:08:07.661Z,3.33
2017-10-30T12:10:36.734Z,3.50
2017-10-30T12:13:06.061Z,2.43
2017-10-30T12:15:35.327Z,2.87
2017-10-30T12:18:04.311Z,1.90
2017-10-30T12:20:33.560Z,2.60
2017-10-30T12:23:02.608Z,3.70
2017-10-30T12:25:37.684Z,2.70
2017-10-30T12:28:06.760Z,2.43
2017-10-30T12:30:35.805Z,2.40
2017-10-30T12:33:05.061Z,1.97
2017-10-30T12:35:34.057Z,2.33
2017-10-30T12:38:03.163Z,2.03
2017-10-30T12:40:33.166Z,1.83
2017-10-30T12:43:02.241Z,2.27
2017-10-30T12:45:31.332Z,1.83
2017-10-30T12:48:01.615Z,1.83
2017-10-30T12:50:31.405Z,1.93
2017-10-30T12:53:00.423Z,1.70
2017-10-30T12:55:29.491Z,1.63
2017-10-30T12:58:04.575Z,2.17
2017-10-30T13:00:33.687Z,1.67
2017-10-30T13:03:02.752Z,2.97
2017-10-30T13:05:32.185Z,2.20
2017-10-30T13:08:01.540Z,2.03
2017-10-30T13:10:30.866Z,2.60
2017-10-30T13:13:02.886Z,1.60
2017-10-30T13:15:31.961Z,1.60
2017-10-30T13:18:01.015Z,1.70
2017-10-30T13:20:30.074Z,1.93
2017-10-30T13:22:59.111Z,2.00
2017-10-30T13:25:35.749Z,1.77
2017-10-30T13:28:04.825Z,2.30
2017-10-30T13:30:47.244Z,1.70
2017-10-30T13:33:16.332Z,1.63
2017-10-30T13:35:59.177Z,1.67
2017-10-30T13:38:28.403Z,2.07
2017-10-30T13:40:58.084Z,2.03
2017-10-30T13:43:27.529Z,2.00
2017-10-30T13:45:56.905Z,1.57
2017-10-30T13:48:26.239Z,1.70
2017-10-30T13:50:55.500Z,2.07
2017-10-30T13:53:24.813Z,2.20
2017-10-30T13:55:54.120Z,1.73
2017-10-30T13:58:23.131Z,2.07
2017-10-30T14:00:59.354Z,1.80
2017-10-30T14:03:28.432Z,1.90
2017-10-30T14:05:57.501Z,2.07
2017-10-30T14:08:26.609Z,2.10
2017-10-30T14:10:55.638Z,1.83
2017-10-30T14:13:31.685Z,1.70
2017-10-30T14:16:00.709Z,2.00
2017-10-30T14:18:30.064Z,2.10
2017-10-30T14:20:59.061Z,2.10
2017-10-30T14:23:28.100Z,2.37
2017-10-30T14:25:57.219Z,2.00
2017-10-30T14:28:26.655Z,2.10
2017-10-30T14:30:55.726Z,1.93
2017-10-30T14:33:25.326Z,2.10
2017-10-30T14:35:54.556Z,2.43
2017-10-30T14:38:23.669Z,2.23
2017-10-30T14:40:52.785Z,2.20
2017-10-30T14:43:21.828Z,2.20
2017-10-30T14:45:50.920Z,2.80
2017-10-30T14:48:20.257Z,3.23
2017-10-30T14:50:49.681Z,1.90
2017-10-30T14:53:18.767Z,2.17
2017-10-30T14:55:48.117Z,2.23
2017-10-30T14:58:17.171Z,2.47
2017-10-30T15:00:46.275Z,2.47
2017-10-30T15:03:15.411Z,2.83
2017-10-30T15:05:44.525Z,2.87
2017-10-30T15:08:19.810Z,2.07
2017-10-30T15:10:49.573Z,2.57
2017-10-30T15:13:18.904Z,2.80
2017-10-30T15:15:48.020Z,3.20
2017-10-30T15:18:17.114Z,2.80
2017-10-30T15:20:46.203Z,2.50
2017-10-30T15:23:29.444Z,4.00
2017-10-30T15:25:58.526Z,3.20
2017-10-30T15:28:27.825Z,2.60
2017-10-30T15:30:56.874Z,2.53
2017-10-30T15:33:30.029Z,2.80
2017-10-30T15:35:59.103Z,3.00
2017-10-30T15:38:28.115Z,2.70
2017-10-30T15:40:58.732Z,4.13
2017-10-30T15:43:27.847Z,4.17
2017-10-30T15:45:56.884Z,3.20
2017-10-30T15:48:25.940Z,2.80
2017-10-30T15:50:55.267Z,3.20
2017-10-30T15:53:24.576Z,3.20
2017-10-30T15:55:54.650Z,3.03
2017-10-30T15:58:23.991Z,2.93
2017-10-30T16:00:53.009Z,3.70
2017-10-30T16:03:22.352Z,3.73
2017-10-30T16:05:51.601Z,3.30
2017-10-30T16:08:20.715Z,3.87
2017-10-30T16:10:51.075Z,3.83
2017-10-30T16:13:20.100Z,4.07
2017-10-30T16:15:49.254Z,3.17
2017-10-30T16:18:24.952Z,3.60
2017-10-30T16:20:55.061Z,4.80
2017-10-30T16:23:25.833Z,4.27
2017-10-30T16:25:55.487Z,4.50
2017-10-30T16:28:24.580Z,3.90
2017-10-30T16:30:53.861Z,4.10
2017-10-30T16:33:23.009Z,4.00
2017-10-30T16:35:52.320Z,3.47
2017-10-30T16:38:21.785Z,3.70
2017-10-30T16:41:05.004Z,4.53
2017-10-30T16:43:34.260Z,4.30
2017-10-30T16:46:03.432Z,4.37
2017-10-30T16:48:32.477Z,3.37
2017-10-30T16:51:15.245Z,4.03
2017-10-30T16:53:44.424Z,3.97
2017-10-30T16:56:13.642Z,3.90
2017-10-30T16:58:42.678Z,4.27
2017-10-30T17:01:17.877Z,3.80
2017-10-30T17:03:47.195Z,5.10
2017-10-30T17:06:16.441Z,4.03
2017-10-30T17:08:45.630Z,3.57
2017-10-30T17:11:14.812Z,4.43
2017-10-30T17:13:44.082Z,4.40
2017-10-30T17:16:13.449Z,4.80
2017-10-30T17:18:42.519Z,4.63
2017-10-30T17:21:11.732Z,3.73
2017-10-30T17:23:41.111Z,5.13
2017-10-30T17:26:10.517Z,4.70
2017-10-30T17:28:39.529Z,5.27
2017-10-30T17:31:08.825Z,4.20
2017-10-30T17:33:44.793Z,5.00
2017-10-30T17:36:15.551Z,4.40
2017-10-30T17:38:45.157Z,4.70
2017-10-30T17:41:22.021Z,5.03
2017-10-30T17:43:58.391Z,4.60
2017-10-30T17:46:31.361Z,3.80
2017-10-30T17:49:00.409Z,4.90
2017-10-30T17:51:35.588Z,4.70
2017-10-30T17:54:05.658Z,4.27
2017-10-30T17:56:37.793Z,4.30
2017-10-30T17:59:06.859Z,4.73
2017-10-30T18:01:35.958Z,4.37
2017-10-30T18:04:12.841Z,5.17
2017-10-30T18:06:48.316Z,5.30
2017-10-30T18:09:17.352Z,3.97
2017-10-30T18:11:46.343Z,4.33
2017-10-30T18:14:16.670Z,4.37
2017-10-30T18:16:46.821Z,5.00
2017-10-30T18:19:22.141Z,4.63
2017-10-30T18:21:56.944Z,4.70
2017-10-30T18:24:26.628Z,4.40
2017-10-30T18:26:55.869Z,4.23
2017-10-30T18:29:26.052Z,4.10
2017-10-30T18:31:58.227Z,3.90
2017-10-30T18:34:27.439Z,4.80
2017-10-30T18:36:56.619Z,5.60
2017-10-30T18:39:26.707Z,4.83
2017-10-30T18:41:57.164Z,4.10
2017-10-30T18:44:26.593Z,3.40
2017-10-30T18:46:56.477Z,3.83
2017-10-30T18:49:25.816Z,5.03
2017-10-30T18:51:56.510Z,4.60
2017-10-30T18:54:25.647Z,4.27
2017-10-30T18:56:54.762Z,5.37
2017-10-30T18:59:23.841Z,3.83
2017-10-30T19:01:53.213Z,4.20
2017-10-30T19:04:22.331Z,4.90
2017-10-30T19:06:51.370Z,4.23
2017-10-30T19:09:27.465Z,4.20
2017-10-30T19:11:56.531Z,4.97
2017-10-30T19:14:25.813Z,5.27
2017-10-30T19:16:55.509Z,5.13
2017-10-30T19:19:25.186Z,5.50
2017-10-30T19:21:54.317Z,5.13
2017-10-30T19:24:24.524Z,5.00
2017-10-30T19:27:02.138Z,4.17
2017-10-30T19:29:32.505Z,5.03
2017-10-30T19:32:02.281Z,4.40
2017-10-30T19:34:31.941Z,4.13
2017-10-30T19:37:01.377Z,4.37
2017-10-30T19:39:37.665Z,3.37
2017-10-30T19:42:06.726Z,5.17
2017-10-30T19:44:36.420Z,3.73
2017-10-30T19:47:06.262Z,4.13
2017-10-30T19:49:35.350Z,4.67
2017-10-30T19:52:04.442Z,4.30
2017-10-30T19:54:33.467Z,4.30
2017-10-30T19:57:03.623Z,4.50
2017-10-30T19:59:42.277Z,5.57
2017-10-30T20:04:45.116Z,4.70
2017-10-30T20:07:20.064Z,4.03
2017-10-30T20:09:56.100Z,3.20
2017-10-30T20:12:29.037Z,5.10
2017-10-30T20:14:58.450Z,4.83
2017-10-30T20:17:34.569Z,3.67
2017-10-30T20:20:03.712Z,4.67
2017-10-30T20:22:47.947Z,4.20
2017-10-30T20:25:17.117Z,4.10
2017-10-30T20:27:46.304Z,5.00
2017-10-30T20:30:15.788Z,4.40
2017-10-30T20:32:45.689Z,5.27
2017-10-30T20:35:15.233Z,4.47
2017-10-30T20:37:44.291Z,4.93
2017-10-30T20:40:13.858Z,5.07
2017-10-30T20:42:43.503Z,5.07
2017-10-30T20:45:12.629Z,4.87
2017-10-30T20:47:41.721Z,4.70
2017-10-30T20:50:10.880Z,6.40
2017-10-30T20:52:39.938Z,4.93
2017-10-30T20:55:15.197Z,5.10
2017-10-30T20:57:44.868Z,4.27
2017-10-30T21:00:13.884Z,4.33
2017-10-30T21:02:51.400Z,4.20
2017-10-30T21:05:27.289Z,4.63
2017-10-30T21:08:03.638Z,5.33
2017-10-30T21:10:32.892Z,5.60
2017-10-30T21:13:04.227Z,5.60
2017-10-30T21:15:33.605Z,6.20
2017-10-30T21:18:02.967Z,5.20
2017-10-30T21:20:32.266Z,6.80
2017-10-30T21:23:01.483Z,6.43
2017-10-30T21:25:43.736Z,5.53
2017-10-30T21:28:13.363Z,4.77
2017-10-30T21:30:43.104Z,5.00
2017-10-30T21:33:12.206Z,5.30
2017-10-30T21:35:41.326Z,4.67
2017-10-30T21:38:10.686Z,4.63
2017-10-30T21:40:57.733Z,4.67
2017-10-30T21:43:28.678Z,4.50
2017-10-30T21:45:58.091Z,4.97
2017-10-30T21:48:28.735Z,4.93
2017-10-30T21:50:58.092Z,5.47
2017-10-30T21:53:27.750Z,3.77
2017-10-30T21:55:57.944Z,5.20
2017-10-30T21:58:27.234Z,4.50
2017-10-30T22:00:56.295Z,4.13
2017-10-30T22:03:26.495Z,4.30
2017-10-30T22:05:55.686Z,4.10
2017-10-30T22:08:25.844Z,4.07
2017-10-30T22:11:00.928Z,3.53
2017-10-30T22:13:30.231Z,2.90
2017-10-30T22:15:59.681Z,3.63
2017-10-30T22:18:28.716Z,3.60
2017-10-30T22:20:59.055Z,4.00
2017-10-30T22:23:28.290Z,3.30
2017-10-30T22:25:57.344Z,3.13
2017-10-30T22:28:26.576Z,3.60
2017-10-30T22:30:55.669Z,4.53
2017-10-30T22:33:24.842Z,4.90
2017-10-30T22:35:54.255Z,5.13
2017-10-30T22:38:23.272Z,4.63
2017-10-30T22:40:52.324Z,5.00
2017-10-30T22:43:21.352Z,5.53
2017-10-30T22:45:50.552Z,4.73
2017-10-30T22:48:19.617Z,5.50
2017-10-30T22:50:49.165Z,4.07
2017-10-30T22:53:18.383Z,4.90
2017-10-30T22:55:47.740Z,4.60
2017-10-30T22:58:16.837Z,4.73
2017-10-30T23:00:45.884Z,4.60
2017-10-30T23:03:15.231Z,5.27
2017-10-30T23:05:44.680Z,4.97
2017-10-30T23:08:16.897Z,5.33
2017-10-30T23:10:46.681Z,4.20
2017-10-30T23:13:19.789Z,3.60
2017-10-30T23:15:48.960Z,3.00
2017-10-30T23:18:24.172Z,3.50
2017-10-30T23:20:53.405Z,3.73
2017-10-30T23:23:22.449Z,4.13
2017-10-30T23:25:52.564Z,4.50
2017-10-30T23:28:21.647Z,4.20
2017-10-30T23:30:50.956Z,3.73
2017-10-30T23:33:20.037Z,5.00
2017-10-30T23:35:57.798Z,2.80
2017-10-30T23:38:28.820Z,3.30
2017-10-30T23:40:57.871Z,3.30
2017-10-30T23:43:27.171Z,3.57
2017-10-30T23:45:56.160Z,4.20
2017-10-30T23:48:25.355Z,4.40
2017-10-30T23:50:54.739Z,4.30
2017-10-30T23:53:25.308Z,4.30
2017-10-30T23:55:54.654Z,3.77
2017-10-30T23:58:23.905Z,4.83
